createdAt,value
2022-11-04T00:00:32.250Z,22.83
2022-11-04T00:02:59.596Z,22.76
2022-11-04T00:05:26.632Z,22.73
2022-11-04T00:08:12.089Z,22.69
2022-11-04T00:10:59.314Z,22.57
2022-11-04T00:13:32.274Z,22.40
2022-11-04T00:16:21.256Z,22.46
2022-11-04T00:18:52.689Z,22.52
2022-11-04T00:21:38.723Z,22.56
2022-11-04T00:24:25.268Z,22.39
2022-11-04T00:27:10.818Z,22.31
2022-11-04T00:29:38.497Z,22.43
2022-11-04T00:32:23.857Z,22.35
2022-11-04T00:34:51.190Z,22.33
2022-11-04T00:37:18.321Z,22.38
2022-11-04T00:39:46.914Z,22.32
2022-11-04T00:42:14.056Z,22.35
2022-11-04T00:44:41.213Z,22.41
2022-11-04T00:47:08.972Z,22.41
2022-11-04T00:49:36.811Z,22.32
2022-11-04T00:52:04.065Z,22.10
2022-11-04T00:54:32.373Z,22.43
2022-11-04T00:56:59.470Z,22.16
2022-11-04T01:02:49.470Z,22.32
2022-11-04T01:05:41.928Z,22.02
2022-11-04T01:08:14.962Z,22.28
2022-11-04T01:10:55.862Z,21.79
2022-11-04T01:13:27.687Z,21.94
2022-11-04T01:16:03.658Z,22.01
2022-11-04T01:18:42.376Z,22.18
2022-11-04T01:21:16.071Z,22.20
2022-11-04T01:23:46.695Z,22.05
2022-11-04T01:26:22.484Z,22.14
2022-11-04T01:29:00.193Z,21.88
2022-11-04T01:31:35.598Z,21.56
2022-11-04T01:34:23.848Z,21.72
2022-11-04T01:37:10.029Z,21.74
2022-11-04T01:40:13.576Z,21.73
2022-11-04T01:42:59.455Z,21.78
2022-11-04T01:45:58.212Z,21.75
2022-11-04T01:48:48.148Z,21.68
2022-11-04T01:51:36.383Z,21.71
2022-11-04T01:54:17.418Z,21.53
2022-11-04T01:57:00.868Z,20.89
2022-11-04T01:59:35.777Z,20.60
2022-11-04T02:02:04.464Z,21.10
2022-11-04T02:04:39.653Z,21.07
2022-11-04T02:07:17.166Z,20.94
2022-11-04T02:09:57.100Z,21.16
2022-11-04T02:12:54.158Z,21.25
2022-11-04T02:15:35.074Z,21.21
2022-11-04T02:18:28.226Z,21.31
2022-11-04T02:21:31.094Z,21.30
2022-11-04T02:24:23.484Z,21.21
2022-11-04T02:27:31.638Z,21.06
2022-11-04T02:30:08.890Z,20.74
2022-11-04T02:33:11.599Z,20.76
2022-11-04T02:35:58.850Z,20.75
2022-11-04T02:38:56.933Z,20.69
2022-11-04T02:41:53.307Z,20.70
2022-11-04T02:44:42.313Z,20.76
2022-11-04T02:47:25.080Z,20.54
2022-11-04T02:50:06.107Z,20.55
2022-11-04T02:53:01.811Z,20.37
2022-11-04T02:56:00.767Z,20.36
2022-11-04T02:58:38.190Z,20.39
2022-11-04T03:01:12.221Z,20.24
2022-11-04T03:03:43.630Z,20.12
2022-11-04T03:06:15.186Z,20.03
2022-11-04T03:08:51.291Z,20.00
2022-11-04T03:11:29.421Z,19.95
2022-11-04T03:14:05.080Z,20.02
2022-11-04T03:16:41.016Z,19.90
2022-11-04T03:19:40.065Z,19.80
2022-11-04T03:22:14.709Z,19.93
2022-11-04T03:24:47.466Z,19.86
2022-11-04T03:27:33.789Z,20.07
2022-11-04T03:30:09.495Z,19.98
2022-11-04T03:33:05.934Z,19.88
2022-11-04T03:35:34.029Z,19.98
2022-11-04T03:38:02.567Z,19.99
2022-11-04T03:40:30.153Z,19.81
2022-11-04T03:43:13.115Z,19.69
2022-11-04T03:45:42.092Z,19.73
2022-11-04T03:48:10.481Z,19.71
2022-11-04T03:50:50.031Z,19.78
2022-11-04T03:56:15.049Z,19.69
2022-11-04T04:02:51.493Z,19.47
2022-11-04T04:05:44.668Z,19.43
2022-11-04T04:08:44.369Z,19.00
2022-11-04T04:11:55.893Z,19.30
2022-11-04T04:14:46.771Z,19.26
2022-11-04T04:17:25.555Z,19.25
2022-11-04T04:20:07.131Z,19.09
2022-11-04T04:22:46.332Z,19.17
2022-11-04T04:25:39.604Z,19.27
2022-11-04T04:28:22.606Z,19.28
2022-11-04T04:31:03.692Z,19.25
2022-11-04T04:33:40.379Z,19.07
2022-11-04T04:36:32.737Z,19.19
2022-11-04T04:39:48.015Z,19.41
2022-11-04T04:42:50.490Z,19.38
2022-11-04T04:45:40.986Z,19.30
2022-11-04T04:48:29.946Z,19.45
2022-11-04T04:51:13.277Z,19.39
2022-11-04T04:53:48.276Z,19.23
2022-11-04T05:02:10.311Z,19.09
2022-11-04T05:04:37.938Z,19.01
2022-11-04T05:07:07.005Z,18.85
2022-11-04T05:09:34.367Z,18.85
2022-11-04T05:12:01.931Z,18.83
2022-11-04T05:14:30.120Z,18.89
2022-11-04T05:16:59.253Z,18.82
2022-11-04T05:19:26.677Z,19.00
2022-11-04T05:21:53.782Z,19.01
2022-11-04T05:24:21.091Z,18.65
2022-11-04T05:26:50.885Z,18.61
2022-11-04T05:29:18.186Z,18.71
2022-11-04T05:31:46.225Z,18.60
2022-11-04T05:34:16.283Z,18.62
2022-11-04T05:36:44.158Z,18.56
2022-11-04T05:39:13.557Z,18.39
2022-11-04T05:41:42.148Z,18.19
2022-11-04T05:44:11.114Z,17.90
2022-11-04T05:46:43.103Z,18.20
2022-11-04T05:49:10.576Z,18.14
2022-11-04T05:51:38.066Z,18.15
2022-11-04T05:54:05.322Z,18.08
2022-11-04T05:56:32.370Z,18.30
2022-11-04T05:58:59.757Z,18.16
2022-11-04T06:01:40.295Z,17.94
2022-11-04T06:04:08.197Z,18.20
2022-11-04T06:06:36.974Z,18.26
2022-11-04T06:09:04.630Z,18.20
2022-11-04T06:11:35.020Z,18.24
2022-11-04T06:14:02.347Z,17.83
2022-11-04T06:16:31.971Z,18.05
2022-11-04T06:19:05.755Z,18.21
2022-11-04T06:21:36.900Z,18.20
2022-11-04T06:24:04.514Z,18.24
2022-11-04T06:26:32.364Z,18.33
2022-11-04T06:29:00.048Z,18.21
2022-11-04T06:31:33.088Z,18.22
2022-11-04T06:34:00.410Z,18.47
2022-11-04T06:36:27.617Z,18.54
2022-11-04T06:39:00.032Z,18.64
2022-11-04T06:41:34.229Z,18.71
2022-11-04T06:44:01.816Z,18.47
2022-11-04T06:46:32.224Z,18.49
2022-11-04T06:49:03.226Z,18.48
2022-11-04T06:51:31.904Z,17.86
2022-11-04T06:53:59.443Z,17.89
2022-11-04T06:56:26.816Z,18.17
2022-11-04T06:58:54.983Z,17.96
2022-11-04T07:01:29.936Z,17.89
2022-11-04T07:03:59.190Z,17.61
2022-11-04T07:06:44.232Z,17.68
2022-11-04T07:09:16.884Z,17.88
2022-11-04T07:11:45.738Z,18.13
2022-11-04T07:14:14.224Z,17.96
2022-11-04T07:16:41.483Z,18.05
2022-11-04T07:19:09.199Z,17.97
2022-11-04T07:21:50.039Z,17.88
2022-11-04T07:24:26.894Z,17.69
2022-11-04T07:29:40.336Z,17.77
2022-11-04T07:32:13.122Z,17.43
2022-11-04T07:34:46.483Z,17.87
2022-11-04T07:37:21.025Z,17.88
2022-11-04T07:40:00.092Z,17.87
2022-11-04T07:42:30.525Z,17.64
2022-11-04T07:45:05.720Z,17.85
2022-11-04T07:47:33.417Z,17.87
2022-11-04T07:50:11.642Z,17.94
2022-11-04T07:52:42.200Z,18.07
2022-11-04T07:57:53.890Z,17.83
2022-11-04T08:00:25.724Z,17.67
2022-11-04T08:02:52.974Z,17.46
2022-11-04T08:05:27.719Z,17.58
2022-11-04T08:07:58.123Z,17.84
2022-11-04T08:10:30.230Z,17.91
2022-11-04T08:12:58.090Z,17.51
2022-11-04T08:15:29.505Z,17.95
2022-11-04T08:17:56.754Z,17.97
2022-11-04T08:20:27.340Z,17.99
2022-11-04T08:23:05.027Z,18.24
2022-11-04T08:25:32.739Z,18.35
2022-11-04T08:28:03.405Z,18.83
2022-11-04T08:30:32.959Z,19.53
2022-11-04T08:33:03.296Z,19.63
2022-11-04T08:35:31.642Z,20.13
2022-11-04T08:37:58.962Z,20.14
2022-11-04T08:40:26.589Z,20.29
2022-11-04T08:42:53.869Z,20.53
2022-11-04T08:45:28.767Z,20.55
2022-11-04T08:48:05.303Z,20.88
2022-11-04T08:50:33.094Z,21.16
2022-11-04T08:53:00.308Z,21.50
2022-11-04T08:55:32.601Z,21.52
2022-11-04T08:58:00.957Z,22.26
2022-11-04T09:00:28.255Z,22.29
2022-11-04T09:02:56.296Z,22.53
2022-11-04T09:05:23.823Z,22.71
2022-11-04T09:07:51.349Z,22.67
2022-11-04T09:10:25.798Z,23.07
2022-11-04T09:13:16.997Z,23.34
2022-11-04T09:15:47.916Z,23.62
2022-11-04T09:18:16.870Z,23.62
2022-11-04T09:20:47.312Z,23.65
2022-11-04T09:23:15.367Z,23.58
2022-11-04T09:25:42.481Z,23.74
2022-11-04T09:28:09.668Z,24.11
2022-11-04T09:30:38.359Z,24.07
2022-11-04T09:33:05.606Z,24.04
2022-11-04T09:35:33.705Z,23.79
2022-11-04T09:38:06.679Z,24.01
2022-11-04T09:40:36.616Z,24.40
2022-11-04T09:43:39.849Z,24.48
2022-11-04T09:46:17.553Z,24.65
2022-11-04T09:48:54.618Z,24.67
2022-11-04T09:51:52.439Z,24.76
2022-11-04T09:54:47.226Z,24.54
2022-11-04T09:57:18.471Z,24.47
2022-11-04T09:59:57.044Z,24.61
2022-11-04T10:02:45.700Z,24.39
2022-11-04T10:05:44.947Z,24.44
2022-11-04T10:09:04.144Z,25.04
2022-11-04T10:12:19.235Z,25.13
2022-11-04T10:15:21.220Z,25.29
2022-11-04T10:18:10.339Z,25.46
2022-11-04T10:20:55.666Z,25.20
2022-11-04T10:23:52.794Z,25.77
2022-11-04T10:26:37.708Z,26.22
2022-11-04T10:29:47.306Z,26.39
2022-11-04T10:32:47.527Z,26.05
2022-11-04T10:35:45.652Z,26.74
2022-11-04T10:38:38.811Z,26.91
2022-11-04T10:41:30.212Z,26.68
2022-11-04T10:44:27.127Z,26.84
2022-11-04T10:47:19.282Z,27.48
2022-11-04T10:50:27.885Z,28.19
2022-11-04T10:53:11.539Z,27.70
2022-11-04T10:55:48.409Z,27.77
2022-11-04T10:58:33.548Z,27.90
2022-11-04T11:01:28.806Z,27.66
2022-11-04T11:04:09.023Z,27.90
2022-11-04T11:06:42.082Z,27.60
2022-11-04T11:09:26.116Z,27.18
2022-11-04T11:12:01.603Z,28.02
2022-11-04T11:14:38.000Z,27.78
2022-11-04T11:17:23.001Z,28.78
2022-11-04T11:20:20.435Z,28.19
2022-11-04T11:23:00.484Z,28.56
2022-11-04T11:25:37.601Z,28.54
2022-11-04T11:28:25.577Z,28.96
2022-11-04T11:31:02.845Z,29.73
2022-11-04T11:33:37.254Z,30.05
2022-11-04T11:36:24.251Z,29.90
2022-11-04T11:39:20.190Z,29.91
2022-11-04T11:42:06.581Z,30.19
2022-11-04T11:44:44.788Z,30.43
2022-11-04T11:47:28.206Z,29.85
2022-11-04T11:50:34.713Z,30.11
2022-11-04T11:53:35.851Z,29.73
2022-11-04T11:56:23.976Z,29.72
2022-11-04T12:02:40.507Z,29.31
2022-11-04T12:12:22.118Z,30.26
2022-11-04T12:15:05.902Z,30.60
2022-11-04T12:17:53.541Z,31.39
2022-11-04T12:20:39.545Z,30.69
2022-11-04T12:23:30.418Z,31.36
2022-11-04T12:26:24.768Z,31.45
2022-11-04T12:29:10.053Z,31.46
2022-11-04T12:32:02.148Z,31.59
2022-11-04T12:34:59.319Z,32.56
2022-11-04T12:37:53.097Z,32.20
2022-11-04T12:40:25.566Z,31.97
2022-11-04T12:43:26.441Z,31.38
2022-11-04T12:49:34.762Z,32.51
2022-11-04T12:52:40.903Z,33.07
2022-11-04T12:55:58.354Z,33.23
2022-11-04T12:58:57.729Z,32.43
2022-11-04T13:02:01.809Z,32.88
2022-11-04T13:05:13.545Z,33.44
2022-11-04T13:07:54.296Z,32.98
2022-11-04T13:10:57.785Z,33.09
2022-11-04T13:13:41.076Z,32.75
2022-11-04T13:16:18.889Z,33.37
2022-11-04T13:18:57.034Z,33.63
2022-11-04T13:21:39.318Z,34.11
2022-11-04T13:24:33.042Z,34.16
2022-11-04T13:30:25.308Z,33.66
2022-11-04T13:33:17.670Z,33.85
2022-11-04T13:36:13.415Z,33.18
2022-11-04T13:38:53.431Z,32.96
2022-11-04T13:41:49.310Z,33.54
2022-11-04T13:44:36.148Z,32.84
2022-11-04T13:47:22.175Z,33.15
2022-11-04T13:49:59.804Z,32.37
2022-11-04T13:53:07.199Z,32.70
2022-11-04T13:55:50.284Z,32.00
2022-11-04T13:58:41.814Z,31.43
2022-11-04T14:01:27.684Z,31.68
2022-11-04T14:04:36.381Z,31.80
2022-11-04T14:07:14.622Z,32.23
2022-11-04T14:10:00.160Z,32.17
2022-11-04T14:12:41.573Z,30.56
2022-11-04T14:15:36.001Z,31.01
2022-11-04T14:18:30.109Z,30.58
2022-11-04T14:21:20.308Z,30.17
2022-11-04T14:23:54.243Z,30.25
2022-11-04T14:26:54.963Z,29.79
2022-11-04T14:29:28.330Z,30.04
2022-11-04T14:32:01.046Z,29.77
2022-11-04T14:34:42.849Z,29.58
2022-11-04T14:37:35.438Z,29.71
2022-11-04T14:40:07.775Z,29.12
2022-11-04T14:43:02.060Z,29.01
2022-11-04T14:45:49.971Z,28.86
2022-11-04T14:48:20.903Z,28.59
2022-11-04T14:50:52.703Z,28.47
2022-11-04T14:53:32.094Z,28.39
2022-11-04T14:56:21.958Z,28.10
2022-11-04T14:59:18.369Z,27.23
2022-11-04T15:01:53.277Z,26.91
2022-11-04T15:04:35.865Z,26.98
2022-11-04T15:07:05.971Z,26.22
2022-11-04T15:09:53.638Z,26.48
2022-11-04T15:12:39.358Z,26.56
2022-11-04T15:15:30.805Z,26.46
2022-11-04T15:18:05.673Z,26.20
2022-11-04T15:20:40.133Z,25.95
2022-11-04T15:23:25.025Z,25.74
2022-11-04T15:25:52.946Z,25.48
2022-11-04T15:28:33.844Z,25.60
2022-11-04T15:31:18.008Z,25.68
2022-11-04T15:33:55.818Z,25.61
2022-11-04T15:36:38.655Z,25.12
2022-11-04T15:39:24.846Z,24.83
2022-11-04T15:42:14.544Z,24.70
2022-11-04T15:44:48.042Z,24.47
2022-11-04T15:47:17.939Z,24.05
2022-11-04T15:49:47.372Z,24.17
2022-11-04T15:52:25.041Z,24.12
2022-11-04T15:54:54.963Z,24.07
2022-11-04T15:57:27.582Z,23.77
2022-11-04T16:00:25.306Z,23.71
2022-11-04T16:02:58.171Z,23.58
2022-11-04T16:05:40.125Z,23.03
2022-11-04T16:08:29.361Z,23.43
2022-11-04T16:11:18.366Z,23.39
2022-11-04T16:13:48.015Z,22.94
2022-11-04T16:16:27.939Z,23.05
2022-11-04T16:18:58.317Z,23.09
2022-11-04T16:21:35.909Z,22.95
2022-11-04T16:24:22.150Z,23.10
2022-11-04T16:26:50.742Z,23.22
2022-11-04T16:29:28.684Z,23.04
2022-11-04T16:32:20.215Z,22.65
2022-11-04T16:34:52.798Z,23.07
2022-11-04T16:37:23.445Z,22.99
2022-11-04T16:39:53.111Z,22.87
2022-11-04T16:42:22.581Z,22.84
2022-11-04T16:45:00.331Z,23.01
2022-11-04T16:47:31.356Z,22.91
2022-11-04T16:50:02.972Z,22.76
2022-11-04T16:52:36.220Z,22.74
2022-11-04T16:55:06.940Z,22.66
2022-11-04T16:57:35.559Z,22.89
2022-11-04T17:00:07.460Z,22.74
2022-11-04T17:02:41.762Z,22.91
2022-11-04T17:05:10.062Z,22.77
2022-11-04T17:07:52.829Z,22.41
2022-11-04T17:10:38.044Z,22.05
2022-11-04T17:13:08.144Z,22.01
2022-11-04T17:15:35.804Z,22.44
2022-11-04T17:18:06.178Z,22.21
2022-11-04T17:20:33.652Z,22.10
2022-11-04T17:23:06.783Z,22.11
2022-11-04T17:25:35.196Z,21.92
2022-11-04T17:28:05.521Z,21.89
2022-11-04T17:30:33.101Z,21.90
2022-11-04T17:33:00.792Z,22.14
2022-11-04T17:35:30.501Z,22.00
2022-11-04T17:37:58.476Z,21.87
2022-11-04T17:40:32.488Z,21.67
2022-11-04T17:43:20.599Z,21.63
2022-11-04T17:46:15.732Z,21.50
2022-11-04T17:48:46.385Z,21.38
2022-11-04T17:51:16.920Z,21.61
2022-11-04T17:53:59.475Z,21.39
2022-11-04T17:56:31.151Z,21.18
2022-11-04T17:59:09.999Z,21.32
2022-11-04T18:01:38.253Z,21.44
2022-11-04T18:04:12.917Z,21.05
2022-11-04T18:06:59.841Z,21.40
2022-11-04T18:09:33.066Z,21.36
2022-11-04T18:12:34.201Z,21.49
2022-11-04T18:15:22.882Z,21.57
2022-11-04T18:17:54.918Z,21.21
2022-11-04T18:20:22.429Z,21.17
2022-11-04T18:23:00.797Z,21.25
2022-11-04T18:25:32.344Z,21.24
2022-11-04T18:28:02.416Z,21.23
2022-11-04T18:30:31.051Z,21.11
2022-11-04T18:33:00.671Z,21.23
2022-11-04T18:35:30.850Z,21.27
2022-11-04T18:38:01.563Z,21.11
2022-11-04T18:40:32.096Z,21.19
2022-11-04T18:43:12.404Z,21.05
2022-11-04T18:45:39.843Z,21.14
2022-11-04T18:48:08.308Z,21.24
2022-11-04T18:50:37.156Z,21.32
2022-11-04T18:53:04.822Z,21.18
2022-11-04T18:55:34.107Z,21.15
2022-11-04T18:58:01.169Z,21.32
2022-11-04T19:00:31.756Z,21.31
2022-11-04T19:03:01.810Z,21.24
2022-11-04T19:05:29.498Z,21.26
2022-11-04T19:07:56.724Z,21.14
2022-11-04T19:10:23.876Z,21.09
2022-11-04T19:13:11.424Z,21.04
2022-11-04T19:15:38.635Z,21.06
2022-11-04T19:18:06.359Z,21.23
2022-11-04T19:20:35.499Z,21.04
2022-11-04T19:23:05.621Z,21.12
2022-11-04T19:25:37.872Z,21.05
2022-11-04T19:28:32.799Z,21.12
2022-11-04T19:31:03.255Z,21.14
2022-11-04T19:33:31.177Z,21.21
2022-11-04T19:35:59.194Z,21.24
2022-11-04T19:38:26.853Z,21.03
2022-11-04T19:40:55.418Z,21.08
2022-11-04T19:43:23.606Z,21.14
2022-11-04T19:45:51.077Z,21.05
2022-11-04T19:48:19.241Z,21.18
2022-11-04T19:50:49.610Z,21.10
2022-11-04T19:53:21.924Z,21.13
2022-11-04T19:55:55.231Z,21.00
2022-11-04T19:58:25.628Z,20.84
2022-11-04T20:00:53.396Z,20.72
2022-11-04T20:03:21.028Z,20.99
2022-11-04T20:05:48.863Z,20.93
2022-11-04T20:08:15.943Z,21.10
2022-11-04T20:10:43.624Z,20.73
2022-11-04T20:13:35.105Z,21.04
2022-11-04T20:16:03.990Z,20.64
2022-11-04T20:18:31.004Z,20.73
2022-11-04T20:21:01.042Z,20.85
2022-11-04T20:23:28.093Z,20.60
2022-11-04T20:25:57.165Z,20.47
2022-11-04T20:28:24.615Z,20.63
2022-11-04T20:30:51.570Z,20.62
2022-11-04T20:33:18.723Z,20.65
2022-11-04T20:35:45.781Z,20.53
2022-11-04T20:38:18.373Z,20.57
2022-11-04T20:40:47.718Z,20.17
2022-11-04T20:43:14.731Z,20.27
2022-11-04T20:45:49.649Z,20.27
2022-11-04T20:48:19.345Z,20.10
2022-11-04T20:50:46.431Z,20.39
2022-11-04T20:53:13.776Z,20.07
2022-11-04T20:55:41.020Z,20.24
2022-11-04T20:58:08.382Z,20.07
2022-11-04T21:00:37.124Z,20.33
2022-11-04T21:03:04.479Z,20.25
2022-11-04T21:05:32.916Z,20.18
2022-11-04T21:07:59.944Z,20.33
2022-11-04T21:10:29.045Z,20.35
2022-11-04T21:12:57.099Z,20.53
2022-11-04T21:15:42.263Z,20.06
2022-11-04T21:18:11.825Z,20.19
2022-11-04T21:20:42.090Z,20.24
2022-11-04T21:23:10.464Z,19.95
2022-11-04T21:25:47.064Z,20.09
2022-11-04T21:28:15.241Z,20.07
2022-11-04T21:30:45.368Z,20.00
2022-11-04T21:33:13.118Z,19.77
2022-11-04T21:35:41.641Z,19.99
2022-11-04T21:38:12.460Z,20.13
2022-11-04T21:40:40.515Z,20.12
2022-11-04T21:43:07.749Z,19.98
2022-11-04T21:45:36.523Z,19.78
2022-11-04T21:48:04.234Z,19.77
2022-11-04T21:50:31.901Z,20.09
2022-11-04T21:52:59.432Z,20.05
2022-11-04T21:55:27.503Z,20.11
2022-11-04T21:57:54.619Z,20.05
2022-11-04T22:00:21.942Z,20.02
2022-11-04T22:02:52.364Z,20.07
2022-11-04T22:05:19.754Z,20.05
2022-11-04T22:08:05.463Z,19.96
2022-11-04T22:10:32.564Z,19.86
2022-11-04T22:12:59.662Z,19.93
2022-11-04T22:15:45.031Z,19.88
2022-11-04T22:18:12.188Z,19.87
2022-11-04T22:20:39.283Z,19.72
2022-11-04T22:23:06.446Z,19.85
2022-11-04T22:25:33.457Z,19.86
2022-11-04T22:28:00.535Z,19.47
2022-11-04T22:30:29.164Z,19.39
2022-11-04T22:32:56.402Z,19.51
2022-11-04T22:35:23.670Z,19.57
2022-11-04T22:37:50.846Z,19.47
2022-11-04T22:40:18.120Z,19.52
2022-11-04T22:42:45.558Z,19.09
2022-11-04T22:45:16.751Z,19.28
2022-11-04T22:47:44.182Z,19.39
2022-11-04T22:50:11.314Z,19.37
2022-11-04T22:52:38.493Z,19.13
2022-11-04T22:55:06.066Z,19.06
2022-11-04T22:57:33.161Z,18.97
2022-11-04T23:00:02.417Z,19.16
2022-11-04T23:02:35.476Z,19.19
2022-11-04T23:05:04.473Z,19.09
2022-11-04T23:07:31.459Z,19.09
2022-11-04T23:10:19.713Z,19.09
2022-11-04T23:13:05.224Z,18.98
2022-11-04T23:15:50.852Z,19.12
2022-11-04T23:18:36.447Z,19.06
2022-11-04T23:21:22.031Z,18.87
2022-11-04T23:24:07.545Z,18.83
2022-11-04T23:26:34.974Z,18.85
2022-11-04T23:29:20.400Z,18.84
2022-11-04T23:31:47.529Z,18.42
2022-11-04T23:34:32.955Z,18.33
2022-11-04T23:37:12.428Z,18.63
2022-11-04T23:39:50.276Z,18.59
2022-11-04T23:42:21.761Z,18.44
2022-11-04T23:45:14.895Z,18.62
2022-11-04T23:48:05.663Z,18.71
2022-11-04T23:50:54.695Z,18.71
2022-11-04T23:53:40.234Z,18.56
2022-11-04T23:56:28.880Z,18.67
2022-11-04T23:59:14.610Z,18.35
